createdAt,value
2023-03-28T00:00:42.464Z,99.90
2023-03-28T00:01:45.488Z,99.90
2023-03-28T00:02:47.593Z,99.90
2023-03-28T00:03:52.496Z,99.90
2023-03-28T00:04:54.683Z,99.90
2023-03-28T00:06:01.510Z,99.90
2023-03-28T00:07:03.947Z,99.90
2023-03-28T00:08:07.231Z,99.90
2023-03-28T00:09:10.971Z,99.90
2023-03-28T00:10:13.702Z,99.90
2023-03-28T00:11:20.432Z,99.90
2023-03-28T00:12:22.716Z,99.90
2023-03-28T00:13:25.687Z,99.90
2023-03-28T00:14:27.965Z,99.90
2023-03-28T00:15:31.722Z,99.90
2023-03-28T00:16:36.467Z,99.90
2023-03-28T00:17:41.633Z,99.90
2023-03-28T00:18:44.930Z,99.90
2023-03-28T00:19:47.103Z,99.90
2023-03-28T00:20:50.322Z,99.90
2023-03-28T00:21:54.793Z,99.90
2023-03-28T00:22:56.876Z,99.90
2023-03-28T00:24:02.351Z,99.90
2023-03-28T00:25:05.543Z,99.90
2023-03-28T00:26:09.025Z,99.90
2023-03-28T00:27:11.990Z,99.90
2023-03-28T00:28:13.985Z,99.90
2023-03-28T00:29:21.240Z,99.90
2023-03-28T00:30:23.656Z,99.90
2023-03-28T00:31:27.718Z,99.90
2023-03-28T00:32:29.920Z,99.90
2023-03-28T00:33:33.115Z,99.90
2023-03-28T00:34:36.225Z,99.90
2023-03-28T00:35:38.992Z,99.90
2023-03-28T00:36:42.703Z,99.90
2023-03-28T00:37:50.778Z,99.90
2023-03-28T00:38:54.943Z,99.90
2023-03-28T00:39:56.940Z,99.90
2023-03-28T00:41:00.998Z,99.90
2023-03-28T00:42:04.099Z,99.90
2023-03-28T00:43:07.350Z,99.90
2023-03-28T00:44:42.458Z,99.90
2023-03-28T00:45:53.188Z,99.90
2023-03-28T00:47:05.116Z,99.90
2023-03-28T00:48:15.558Z,99.90
2023-03-28T00:49:21.317Z,99.90
2023-03-28T00:50:28.404Z,99.90
2023-03-28T00:51:35.471Z,99.90
2023-03-28T00:52:43.629Z,99.90
2023-03-28T00:53:47.663Z,99.90
2023-03-28T00:54:51.951Z,99.90
2023-03-28T00:55:58.921Z,99.90
2023-03-28T00:57:03.737Z,99.90
2023-03-28T00:58:10.553Z,99.90
2023-03-28T00:59:18.648Z,99.90
2023-03-28T01:00:21.914Z,99.90
2023-03-28T01:01:25.101Z,99.90
2023-03-28T01:02:27.470Z,99.90
2023-03-28T01:03:34.005Z,99.90
2023-03-28T01:04:46.505Z,99.90
2023-03-28T01:05:50.016Z,99.90
2023-03-28T01:06:56.981Z,99.90
2023-03-28T01:08:06.298Z,99.90
2023-03-28T01:09:10.703Z,99.90
2023-03-28T01:10:14.218Z,99.90
2023-03-28T01:11:18.413Z,99.90
2023-03-28T01:12:21.456Z,99.90
2023-03-28T01:13:28.150Z,99.90
2023-03-28T01:14:30.742Z,99.90
2023-03-28T01:15:36.138Z,99.90
2023-03-28T01:16:42.717Z,99.90
2023-03-28T01:17:48.117Z,99.90
2023-03-28T01:18:51.685Z,99.90
2023-03-28T01:20:06.509Z,99.90
2023-03-28T01:21:34.157Z,99.90
2023-03-28T01:23:15.317Z,99.90
2023-03-28T01:24:57.637Z,99.90
2023-03-28T01:26:42.608Z,99.90
2023-03-28T01:27:52.192Z,99.90
2023-03-28T01:29:45.840Z,99.90
2023-03-28T01:31:30.944Z,99.90
2023-03-28T01:33:41.790Z,99.90
2023-03-28T01:34:55.811Z,99.90
2023-03-28T01:36:34.181Z,99.90
2023-03-28T01:37:44.111Z,99.90
2023-03-28T01:38:56.558Z,99.90
2023-03-28T01:40:13.518Z,99.90
2023-03-28T01:41:28.371Z,99.90
2023-03-28T01:42:38.653Z,99.90
2023-03-28T01:43:49.555Z,99.90
2023-03-28T01:45:04.217Z,99.90
2023-03-28T01:46:14.834Z,99.90
2023-03-28T01:47:26.594Z,99.90
2023-03-28T01:48:41.727Z,99.90
2023-03-28T01:49:52.062Z,99.90
2023-03-28T01:50:59.908Z,99.90
2023-03-28T01:52:08.559Z,99.90
2023-03-28T01:53:22.865Z,99.90
2023-03-28T01:54:33.196Z,99.90
2023-03-28T01:55:41.893Z,99.90
2023-03-28T01:56:54.186Z,99.90
2023-03-28T01:58:13.206Z,99.90
2023-03-28T01:59:26.982Z,99.90
2023-03-28T02:01:08.023Z,99.90
2023-03-28T02:02:19.521Z,99.90
2023-03-28T02:03:27.370Z,99.90
2023-03-28T02:04:45.440Z,99.90
2023-03-28T02:05:50.396Z,99.90
2023-03-28T02:06:55.924Z,99.90
2023-03-28T02:08:08.335Z,99.90
2023-03-28T02:09:30.155Z,99.90
2023-03-28T02:10:42.384Z,99.90
2023-03-28T02:12:15.308Z,99.90
2023-03-28T02:13:41.115Z,99.90
2023-03-28T02:15:13.922Z,99.90
2023-03-28T02:16:41.320Z,99.90
2023-03-28T02:18:01.261Z,99.90
2023-03-28T02:19:29.703Z,99.90
2023-03-28T02:20:53.645Z,99.90
2023-03-28T02:22:20.870Z,99.90
2023-03-28T02:23:39.384Z,99.90
2023-03-28T02:24:56.349Z,99.90
2023-03-28T02:26:23.943Z,99.90
2023-03-28T02:27:44.878Z,99.90
2023-03-28T02:28:58.010Z,99.90
2023-03-28T02:30:07.759Z,99.90
2023-03-28T02:31:14.566Z,99.90
2023-03-28T02:32:17.368Z,99.90
2023-03-28T02:33:39.600Z,99.90
2023-03-28T02:34:43.766Z,99.90
2023-03-28T02:35:57.228Z,99.90
2023-03-28T02:37:10.560Z,99.90
2023-03-28T02:38:22.754Z,99.90
2023-03-28T02:39:42.563Z,99.90
2023-03-28T02:40:55.086Z,99.90
2023-03-28T02:42:23.894Z,99.90
2023-03-28T02:44:00.833Z,99.90
2023-03-28T02:45:25.697Z,99.90
2023-03-28T02:46:32.694Z,99.90
2023-03-28T02:47:38.476Z,99.90
2023-03-28T02:48:56.818Z,99.90
2023-03-28T02:50:11.348Z,99.90
2023-03-28T02:51:22.726Z,99.90
2023-03-28T02:52:34.991Z,99.90
2023-03-28T02:53:45.966Z,99.90
2023-03-28T02:54:53.909Z,99.90
2023-03-28T02:56:16.019Z,99.90
2023-03-28T02:57:46.898Z,99.90
2023-03-28T02:58:54.703Z,99.90
2023-03-28T03:00:02.170Z,99.90
2023-03-28T03:01:06.841Z,99.90
2023-03-28T03:02:11.508Z,99.90
2023-03-28T03:03:14.086Z,99.90
2023-03-28T03:04:17.891Z,99.90
2023-03-28T03:05:21.251Z,99.90
2023-03-28T03:06:24.369Z,99.90
2023-03-28T03:07:27.027Z,99.90
2023-03-28T03:08:30.081Z,99.90
2023-03-28T03:09:33.378Z,99.90
2023-03-28T03:10:36.836Z,99.90
2023-03-28T03:11:40.245Z,99.90
2023-03-28T03:12:43.447Z,99.90
2023-03-28T03:13:45.525Z,99.90
2023-03-28T03:14:50.899Z,99.90
2023-03-28T03:16:12.532Z,99.90
2023-03-28T03:17:14.811Z,99.90
2023-03-28T03:18:18.934Z,99.90
2023-03-28T03:19:21.770Z,99.90
2023-03-28T03:20:26.180Z,99.90
2023-03-28T03:21:28.275Z,99.90
2023-03-28T03:22:31.662Z,99.90
2023-03-28T03:23:33.862Z,99.90
2023-03-28T03:24:37.324Z,99.90
2023-03-28T03:25:39.674Z,99.90
2023-03-28T03:26:48.174Z,99.90
2023-03-28T03:27:51.774Z,99.90
2023-03-28T03:28:57.349Z,99.90
2023-03-28T03:30:02.793Z,99.90
2023-03-28T03:31:19.586Z,99.90
2023-03-28T03:32:57.238Z,99.90
2023-03-28T03:34:02.662Z,99.90
2023-03-28T03:35:09.112Z,99.90
2023-03-28T03:36:13.615Z,99.90
2023-03-28T03:37:18.270Z,99.90
2023-03-28T03:38:20.703Z,99.90
2023-03-28T03:39:23.964Z,99.90
2023-03-28T03:40:26.038Z,99.90
2023-03-28T03:41:29.349Z,99.90
2023-03-28T03:42:32.940Z,99.90
2023-03-28T03:43:36.417Z,99.90
2023-03-28T03:44:38.779Z,99.90
2023-03-28T03:45:41.899Z,99.90
2023-03-28T03:46:45.515Z,99.90
2023-03-28T03:47:48.318Z,99.90
2023-03-28T03:48:51.465Z,99.90
2023-03-28T03:49:53.791Z,99.90
2023-03-28T03:50:56.809Z,99.90
2023-03-28T03:51:58.878Z,99.90
2023-03-28T03:53:02.243Z,99.90
2023-03-28T03:54:12.041Z,99.90
2023-03-28T03:55:15.956Z,99.90
2023-03-28T03:56:19.290Z,99.90
2023-03-28T03:57:38.006Z,99.90
2023-03-28T03:58:42.190Z,99.90
2023-03-28T03:59:45.750Z,99.90
2023-03-28T04:00:52.103Z,99.90
2023-03-28T04:02:12.130Z,99.90
2023-03-28T04:03:34.429Z,99.90
2023-03-28T04:04:40.442Z,99.90
2023-03-28T04:05:52.680Z,99.90
2023-03-28T04:06:58.179Z,99.90
2023-03-28T04:08:01.665Z,99.90
2023-03-28T04:09:09.925Z,99.90
2023-03-28T04:10:32.067Z,99.90
2023-03-28T04:11:34.859Z,99.90
2023-03-28T04:12:39.588Z,99.90
2023-03-28T04:13:41.618Z,99.90
2023-03-28T04:14:44.960Z,99.90
2023-03-28T04:16:07.286Z,99.90
2023-03-28T04:17:16.540Z,99.90
2023-03-28T04:18:20.573Z,99.90
2023-03-28T04:19:24.393Z,99.90
2023-03-28T04:20:29.709Z,99.90
2023-03-28T04:21:42.843Z,99.90
2023-03-28T04:22:48.239Z,99.90
2023-03-28T04:23:52.215Z,99.90
2023-03-28T04:25:05.060Z,99.90
2023-03-28T04:26:15.375Z,99.90
2023-03-28T04:27:31.291Z,99.90
2023-03-28T04:28:35.436Z,99.90
2023-03-28T04:29:42.560Z,99.90
2023-03-28T04:31:07.286Z,99.90
2023-03-28T04:32:21.278Z,99.90
2023-03-28T04:33:38.028Z,99.90
2023-03-28T04:34:40.714Z,99.90
2023-03-28T04:35:48.652Z,99.90
2023-03-28T04:36:51.275Z,99.90
2023-03-28T04:37:57.770Z,99.90
2023-03-28T04:39:02.447Z,99.90
2023-03-28T04:40:29.360Z,99.90
2023-03-28T04:41:48.510Z,99.90
2023-03-28T04:42:51.516Z,99.90
2023-03-28T04:43:57.592Z,99.90
2023-03-28T04:45:00.897Z,99.90
2023-03-28T04:46:03.551Z,99.90
2023-03-28T04:47:08.553Z,99.90
2023-03-28T04:48:10.954Z,99.90
2023-03-28T04:49:15.160Z,99.90
2023-03-28T04:50:17.431Z,99.90
2023-03-28T04:51:21.157Z,99.90
2023-03-28T04:52:23.162Z,99.90
2023-03-28T04:53:26.247Z,99.90
2023-03-28T04:55:04.681Z,99.90
2023-03-28T04:56:09.093Z,99.90
2023-03-28T04:57:12.469Z,99.90
2023-03-28T04:58:25.638Z,99.90
2023-03-28T04:59:30.060Z,99.90
2023-03-28T05:00:33.047Z,99.90
2023-03-28T05:01:56.026Z,99.90
2023-03-28T05:03:13.132Z,99.90
2023-03-28T05:04:27.937Z,99.90
2023-03-28T05:05:31.273Z,99.90
2023-03-28T05:06:34.896Z,99.90
2023-03-28T05:07:37.533Z,99.90
2023-03-28T05:08:41.495Z,99.90
2023-03-28T05:09:44.481Z,99.90
2023-03-28T05:10:47.908Z,99.90
2023-03-28T05:11:50.877Z,99.90
2023-03-28T05:12:54.037Z,99.90
2023-03-28T05:13:59.109Z,99.90
2023-03-28T05:15:08.521Z,99.90
2023-03-28T05:16:24.673Z,99.90
2023-03-28T05:17:50.953Z,99.90
2023-03-28T05:19:03.829Z,99.90
2023-03-28T05:20:27.203Z,99.90
2023-03-28T05:21:32.606Z,99.90
2023-03-28T05:22:34.641Z,99.90
2023-03-28T05:23:38.626Z,99.90
2023-03-28T05:24:49.661Z,99.90
2023-03-28T05:25:58.831Z,99.90
2023-03-28T05:27:04.814Z,99.90
2023-03-28T05:28:07.639Z,99.90
2023-03-28T05:29:16.372Z,99.90
2023-03-28T05:30:23.645Z,99.90
2023-03-28T05:31:30.812Z,99.90
2023-03-28T05:32:48.894Z,99.90
2023-03-28T05:33:52.116Z,99.90
2023-03-28T05:35:09.750Z,99.90
2023-03-28T05:36:13.070Z,99.90
2023-03-28T05:37:15.186Z,99.90
2023-03-28T05:38:31.458Z,99.90
2023-03-28T05:39:39.809Z,99.90
2023-03-28T05:40:42.789Z,99.90
2023-03-28T05:41:46.001Z,99.90
2023-03-28T05:42:48.251Z,99.90
2023-03-28T05:43:54.681Z,99.90
2023-03-28T05:45:16.962Z,99.90
2023-03-28T05:46:44.931Z,99.90
2023-03-28T05:47:48.259Z,99.90
2023-03-28T05:48:51.510Z,99.90
2023-03-28T05:49:54.982Z,99.90
2023-03-28T05:50:58.401Z,99.90
2023-03-28T05:52:00.858Z,99.90
2023-03-28T05:53:04.092Z,99.90
2023-03-28T05:54:06.325Z,99.90
2023-03-28T05:55:09.972Z,99.90
2023-03-28T05:56:13.042Z,99.90
2023-03-28T05:57:15.689Z,99.90
2023-03-28T05:58:20.159Z,99.90
2023-03-28T05:59:24.943Z,99.90
2023-03-28T06:00:28.395Z,99.90
2023-03-28T06:01:31.404Z,99.90
2023-03-28T06:02:43.209Z,99.90
2023-03-28T06:03:47.769Z,99.90
2023-03-28T06:04:52.553Z,99.90
2023-03-28T06:05:55.725Z,99.90
2023-03-28T06:07:03.188Z,99.90
2023-03-28T06:08:06.577Z,99.90
2023-03-28T06:09:10.818Z,99.90
2023-03-28T06:10:24.167Z,99.90
2023-03-28T06:11:43.110Z,99.90
2023-03-28T06:12:45.888Z,99.90
2023-03-28T06:13:49.189Z,99.90
2023-03-28T06:14:51.395Z,99.90
2023-03-28T06:16:02.894Z,99.90
2023-03-28T06:17:08.042Z,99.90
2023-03-28T06:18:22.671Z,99.90
2023-03-28T06:19:27.125Z,99.90
2023-03-28T06:20:31.157Z,99.90
2023-03-28T06:21:34.746Z,99.90
2023-03-28T06:22:41.652Z,99.90
2023-03-28T06:23:47.254Z,99.90
2023-03-28T06:24:58.556Z,99.90
2023-03-28T06:26:05.028Z,99.90
2023-03-28T06:27:14.106Z,99.90
2023-03-28T06:28:16.730Z,99.90
2023-03-28T06:29:38.885Z,99.90
2023-03-28T06:30:42.028Z,97.00
2023-03-28T06:31:45.101Z,95.90
2023-03-28T06:32:48.106Z,97.30
2023-03-28T06:33:54.260Z,95.20
2023-03-28T06:34:57.469Z,94.80
2023-03-28T06:36:00.960Z,93.40
2023-03-28T06:37:07.242Z,92.50
2023-03-28T06:38:21.435Z,90.80
2023-03-28T06:39:27.453Z,90.20
2023-03-28T06:40:33.877Z,91.00
2023-03-28T06:41:36.065Z,92.20
2023-03-28T06:42:40.445Z,91.10
2023-03-28T06:44:19.056Z,90.60
2023-03-28T06:45:42.140Z,89.00
2023-03-28T06:46:49.997Z,81.90
2023-03-28T06:47:54.217Z,75.40
2023-03-28T06:49:06.597Z,72.60
2023-03-28T06:50:50.246Z,70.80
2023-03-28T06:51:54.972Z,70.90
2023-03-28T06:52:58.003Z,70.30
2023-03-28T06:54:01.281Z,69.10
2023-03-28T06:55:06.593Z,69.00
2023-03-28T06:56:09.433Z,69.70
2023-03-28T06:57:12.964Z,69.30
2023-03-28T06:58:17.805Z,65.70
2023-03-28T06:59:26.067Z,64.70
2023-03-28T07:00:34.148Z,62.90
2023-03-28T07:01:56.161Z,59.30
2023-03-28T07:03:04.100Z,57.70
2023-03-28T07:04:08.885Z,57.40
2023-03-28T07:05:12.076Z,55.70
2023-03-28T07:06:15.307Z,55.00
2023-03-28T07:07:18.860Z,55.40
2023-03-28T07:08:22.205Z,54.50
2023-03-28T07:09:25.547Z,53.80
2023-03-28T07:10:34.088Z,54.50
2023-03-28T07:11:37.198Z,54.10
2023-03-28T07:12:39.462Z,53.30
2023-03-28T07:13:43.395Z,53.30
2023-03-28T07:14:47.643Z,52.30
2023-03-28T07:15:59.889Z,51.10
2023-03-28T07:17:03.033Z,49.30
2023-03-28T07:18:05.899Z,46.30
2023-03-28T07:19:10.848Z,43.80
2023-03-28T07:20:17.724Z,42.20
2023-03-28T07:21:21.202Z,40.00
2023-03-28T07:22:23.279Z,38.90
2023-03-28T07:23:26.437Z,38.40
2023-03-28T07:24:29.883Z,37.30
2023-03-28T07:25:37.771Z,36.80
2023-03-28T07:26:40.906Z,36.40
2023-03-28T07:27:44.187Z,35.30
2023-03-28T07:28:49.233Z,34.70
2023-03-28T07:29:52.483Z,35.10
2023-03-28T07:30:54.888Z,36.00
2023-03-28T07:31:58.021Z,35.70
2023-03-28T07:33:12.545Z,34.60
2023-03-28T07:34:21.560Z,33.90
2023-03-28T07:35:24.261Z,33.30
2023-03-28T07:36:29.693Z,33.40
2023-03-28T07:37:38.987Z,33.60
2023-03-28T07:39:05.173Z,34.80
2023-03-28T07:40:09.059Z,35.70
2023-03-28T07:41:12.887Z,36.40
2023-03-28T07:42:16.326Z,36.50
2023-03-28T07:43:18.405Z,36.30
2023-03-28T07:44:21.702Z,37.30
2023-03-28T07:45:23.723Z,37.20
2023-03-28T07:46:27.914Z,36.50
2023-03-28T07:47:31.589Z,36.00
2023-03-28T07:48:35.505Z,35.60
2023-03-28T07:49:41.044Z,35.70
2023-03-28T07:50:45.361Z,35.30
2023-03-28T07:51:52.572Z,35.60
2023-03-28T07:52:57.731Z,35.10
2023-03-28T07:54:01.819Z,34.20
2023-03-28T07:55:05.685Z,33.90
2023-03-28T07:56:13.218Z,33.50
2023-03-28T07:57:41.564Z,33.40
2023-03-28T07:58:55.011Z,33.60
2023-03-28T07:59:57.575Z,34.30
2023-03-28T08:01:06.804Z,34.50
2023-03-28T08:02:25.378Z,33.50
2023-03-28T08:03:28.271Z,32.50
2023-03-28T08:04:31.480Z,31.60
2023-03-28T08:05:43.502Z,31.50
2023-03-28T08:06:47.396Z,31.90
2023-03-28T08:07:52.350Z,31.60
2023-03-28T08:08:55.586Z,31.20
2023-03-28T08:10:16.124Z,30.00
2023-03-28T08:11:19.374Z,29.50
2023-03-28T08:12:22.380Z,29.10
2023-03-28T08:13:24.922Z,28.70
2023-03-28T08:14:28.229Z,28.50
2023-03-28T08:15:31.133Z,27.90
2023-03-28T08:16:34.294Z,28.10
2023-03-28T08:17:38.083Z,28.20
2023-03-28T08:18:41.287Z,28.10
2023-03-28T08:19:44.263Z,27.70
2023-03-28T08:20:49.064Z,27.80
2023-03-28T08:21:52.609Z,27.90
2023-03-28T08:22:54.753Z,27.90
2023-03-28T08:24:25.474Z,27.70
2023-03-28T08:25:40.969Z,27.10
2023-03-28T08:26:43.050Z,26.20
2023-03-28T08:27:47.116Z,25.70
2023-03-28T08:28:51.225Z,25.90
2023-03-28T08:29:53.436Z,26.00
2023-03-28T08:30:56.600Z,26.10
2023-03-28T08:31:59.991Z,26.00
2023-03-28T08:33:04.566Z,26.10
2023-03-28T08:34:08.707Z,25.80
2023-03-28T08:35:14.810Z,26.10
2023-03-28T08:36:20.596Z,26.50
2023-03-28T08:37:22.756Z,26.30
2023-03-28T08:38:26.981Z,26.30
2023-03-28T08:39:29.229Z,26.40
2023-03-28T08:40:32.506Z,26.50
2023-03-28T08:41:58.556Z,26.50
2023-03-28T08:43:23.047Z,26.60
2023-03-28T08:44:42.417Z,26.90
2023-03-28T08:45:53.054Z,27.80
2023-03-28T08:46:59.962Z,28.50
2023-03-28T08:48:18.884Z,28.70
2023-03-28T08:49:23.327Z,29.40
2023-03-28T08:50:30.745Z,30.40
2023-03-28T08:51:39.101Z,30.40
2023-03-28T08:52:43.287Z,30.60
2023-03-28T08:53:53.150Z,31.70
2023-03-28T08:54:59.919Z,33.20
2023-03-28T08:56:06.653Z,33.20
2023-03-28T08:57:17.472Z,33.00
2023-03-28T08:58:23.449Z,32.80
2023-03-28T08:59:29.831Z,32.10
2023-03-28T09:00:36.741Z,32.20
2023-03-28T09:01:40.508Z,32.70
2023-03-28T09:02:44.078Z,32.30
2023-03-28T09:03:49.943Z,32.50
2023-03-28T09:05:12.112Z,32.00
2023-03-28T09:06:28.051Z,32.00
2023-03-28T09:07:38.218Z,31.60
2023-03-28T09:09:01.626Z,31.40
2023-03-28T09:10:19.080Z,31.50
2023-03-28T09:11:40.534Z,32.00
2023-03-28T09:13:01.706Z,32.40
2023-03-28T09:14:16.335Z,31.70
2023-03-28T09:15:38.560Z,32.50
2023-03-28T09:16:53.359Z,33.30
2023-03-28T09:18:16.925Z,33.70
2023-03-28T09:19:40.587Z,33.60
2023-03-28T09:21:14.470Z,34.30
2023-03-28T09:22:28.098Z,34.10
2023-03-28T09:23:47.659Z,34.40
2023-03-28T09:25:30.701Z,33.70
2023-03-28T09:26:36.548Z,33.90
2023-03-28T09:27:52.688Z,33.30
2023-03-28T09:28:59.924Z,32.80
2023-03-28T09:30:19.043Z,33.50
2023-03-28T09:31:27.791Z,33.10
2023-03-28T09:32:38.085Z,33.70
2023-03-28T09:33:45.216Z,35.20
2023-03-28T09:34:53.212Z,35.70
2023-03-28T09:35:58.175Z,36.20
2023-03-28T09:37:14.280Z,36.10
2023-03-28T09:38:25.210Z,36.70
2023-03-28T09:39:36.883Z,36.80
2023-03-28T09:40:46.833Z,36.90
2023-03-28T09:42:21.608Z,36.40
2023-03-28T09:43:31.312Z,36.20
2023-03-28T09:45:04.643Z,36.40
2023-03-28T09:46:44.704Z,37.30
2023-03-28T09:48:26.751Z,35.90
2023-03-28T09:49:30.842Z,35.60
2023-03-28T09:50:44.462Z,35.70
2023-03-28T09:51:49.300Z,36.30
2023-03-28T09:52:51.693Z,36.10
2023-03-28T09:53:54.740Z,35.60
2023-03-28T09:55:00.448Z,35.70
2023-03-28T09:56:08.786Z,35.90
2023-03-28T09:57:15.857Z,35.40
2023-03-28T09:58:26.219Z,35.60
2023-03-28T09:59:49.545Z,35.90
2023-03-28T10:00:57.832Z,35.70
2023-03-28T10:02:34.684Z,36.40
2023-03-28T10:03:52.608Z,36.40
2023-03-28T10:04:56.569Z,36.30
2023-03-28T10:06:21.042Z,36.80
2023-03-28T10:07:43.694Z,36.10
2023-03-28T10:09:18.163Z,37.00
2023-03-28T10:10:31.666Z,37.10
2023-03-28T10:11:48.826Z,37.20
2023-03-28T10:12:57.654Z,36.80
2023-03-28T10:14:01.679Z,36.50
2023-03-28T10:15:04.832Z,36.30
2023-03-28T10:16:47.132Z,37.20
2023-03-28T10:18:06.690Z,36.00
2023-03-28T10:19:31.642Z,35.50
2023-03-28T10:20:41.519Z,35.30
2023-03-28T10:21:49.739Z,34.60
2023-03-28T10:22:56.983Z,34.50
2023-03-28T10:24:05.152Z,34.20
2023-03-28T10:25:16.416Z,33.20
2023-03-28T10:26:25.962Z,33.40
2023-03-28T10:27:31.909Z,33.80
2023-03-28T10:28:37.264Z,33.80
2023-03-28T10:29:39.628Z,32.70
2023-03-28T10:30:43.273Z,31.10
2023-03-28T10:31:51.481Z,30.60
2023-03-28T10:33:24.620Z,30.60
2023-03-28T10:35:00.338Z,31.40
2023-03-28T10:36:29.048Z,31.70
2023-03-28T10:37:34.355Z,32.80
2023-03-28T10:38:52.341Z,32.80
2023-03-28T10:40:25.780Z,32.80
2023-03-28T10:41:55.670Z,32.50
2023-03-28T10:43:33.631Z,33.10
2023-03-28T10:45:01.763Z,32.50
2023-03-28T10:46:16.699Z,32.40
2023-03-28T10:47:39.522Z,32.60
2023-03-28T10:48:49.327Z,32.70
2023-03-28T10:49:55.585Z,32.60
2023-03-28T10:51:08.348Z,32.70
2023-03-28T10:52:20.309Z,32.00
2023-03-28T10:53:37.050Z,32.30
2023-03-28T10:54:54.675Z,32.10
2023-03-28T10:56:25.815Z,31.40
2023-03-28T10:57:39.327Z,31.20
2023-03-28T10:58:48.070Z,30.90
2023-03-28T11:00:07.149Z,31.20
2023-03-28T11:01:19.403Z,31.20
2023-03-28T11:03:11.798Z,30.90
2023-03-28T11:04:34.692Z,30.30
2023-03-28T11:05:54.978Z,31.90
2023-03-28T11:07:13.503Z,31.50
2023-03-28T11:08:58.055Z,31.90
2023-03-28T11:10:20.469Z,33.00
2023-03-28T11:11:59.951Z,33.20
2023-03-28T11:13:15.605Z,32.90
2023-03-28T11:14:29.483Z,33.30
2023-03-28T11:15:38.741Z,33.60
2023-03-28T11:17:03.110Z,33.80
2023-03-28T11:18:32.830Z,34.00
2023-03-28T11:19:49.810Z,34.30
2023-03-28T11:20:59.519Z,34.40
2023-03-28T11:22:11.469Z,34.20
2023-03-28T11:23:38.069Z,34.30
2023-03-28T11:25:15.178Z,32.90
2023-03-28T11:26:51.454Z,33.00
2023-03-28T11:28:27.229Z,33.30
2023-03-28T11:29:44.110Z,34.00
2023-03-28T11:30:56.639Z,34.30
2023-03-28T11:32:17.414Z,33.40
2023-03-28T11:33:27.917Z,32.80
2023-03-28T11:34:42.750Z,33.80
2023-03-28T11:35:50.091Z,34.10
2023-03-28T11:36:57.430Z,33.70
2023-03-28T11:38:03.375Z,33.40
2023-03-28T11:39:15.214Z,33.50
2023-03-28T11:40:25.031Z,33.70
2023-03-28T11:41:37.360Z,33.20
2023-03-28T11:42:48.886Z,33.20
2023-03-28T11:43:59.753Z,33.30
2023-03-28T11:45:08.324Z,33.40
2023-03-28T11:46:15.267Z,33.90
2023-03-28T11:47:23.359Z,34.00
2023-03-28T11:48:40.939Z,35.30
2023-03-28T11:49:53.780Z,34.80
2023-03-28T11:51:33.143Z,34.40
2023-03-28T11:52:42.156Z,35.80
2023-03-28T11:53:51.896Z,36.20
2023-03-28T11:55:04.745Z,35.20
2023-03-28T11:56:15.559Z,34.90
2023-03-28T11:57:43.722Z,34.70
2023-03-28T11:58:50.351Z,35.00
2023-03-28T11:59:57.993Z,35.90
2023-03-28T12:01:08.426Z,35.30
2023-03-28T12:02:32.274Z,35.10
2023-03-28T12:03:47.191Z,35.80
2023-03-28T12:04:55.759Z,35.70
2023-03-28T12:06:05.476Z,34.60
2023-03-28T12:07:17.192Z,34.00
2023-03-28T12:08:26.432Z,34.00
2023-03-28T12:09:35.620Z,33.10
2023-03-28T12:10:40.111Z,33.00
2023-03-28T12:11:55.908Z,32.60
2023-03-28T12:13:05.081Z,33.10
2023-03-28T12:14:34.452Z,32.80
2023-03-28T12:15:50.006Z,32.00
2023-03-28T12:16:55.278Z,31.50
2023-03-28T12:18:03.488Z,31.10
2023-03-28T12:19:10.679Z,30.00
2023-03-28T12:20:30.339Z,30.00
2023-03-28T12:21:36.640Z,29.70
2023-03-28T12:22:43.890Z,29.90
2023-03-28T12:24:03.649Z,30.10
2023-03-28T12:25:26.139Z,29.70
2023-03-28T12:26:37.144Z,30.20
2023-03-28T12:27:56.771Z,30.10
2023-03-28T12:29:10.312Z,30.00
2023-03-28T12:30:22.568Z,29.80
2023-03-28T12:31:32.422Z,29.70
2023-03-28T12:32:51.733Z,29.70
2023-03-28T12:34:07.642Z,29.60
2023-03-28T12:35:39.730Z,29.60
2023-03-28T12:36:52.184Z,29.90
2023-03-28T12:38:02.340Z,30.20
2023-03-28T12:39:24.366Z,30.90
2023-03-28T12:40:45.818Z,30.50
2023-03-28T12:41:49.511Z,30.80
2023-03-28T12:42:55.559Z,29.90
2023-03-28T12:44:01.734Z,30.00
2023-03-28T12:45:19.082Z,29.90
2023-03-28T12:46:26.626Z,30.00
2023-03-28T12:47:35.827Z,30.00
2023-03-28T12:48:43.611Z,29.50
2023-03-28T12:49:50.474Z,29.60
2023-03-28T12:50:59.245Z,29.00
2023-03-28T12:52:04.724Z,29.00
2023-03-28T12:53:11.665Z,28.60
2023-03-28T12:54:26.117Z,28.80
2023-03-28T12:55:42.794Z,28.60
2023-03-28T12:56:47.418Z,28.90
2023-03-28T12:57:50.058Z,29.30
2023-03-28T12:59:47.137Z,29.10
2023-03-28T13:01:36.070Z,29.00
2023-03-28T13:03:13.528Z,29.10
2023-03-28T13:04:28.917Z,28.60
2023-03-28T13:05:48.706Z,29.30
2023-03-28T13:07:04.318Z,29.10
2023-03-28T13:08:14.907Z,28.80
2023-03-28T13:09:37.138Z,28.90
2023-03-28T13:10:46.397Z,28.80
2023-03-28T13:11:55.987Z,28.70
2023-03-28T13:13:08.676Z,29.00
2023-03-28T13:14:29.208Z,28.50
2023-03-28T13:15:58.717Z,28.70
2023-03-28T13:17:05.894Z,29.20
2023-03-28T13:18:33.870Z,29.70
2023-03-28T13:19:46.918Z,29.90
2023-03-28T13:20:51.480Z,29.90
2023-03-28T13:21:57.562Z,30.10
2023-03-28T13:23:06.397Z,29.90
2023-03-28T13:24:28.676Z,29.80
2023-03-28T13:25:33.041Z,30.00
2023-03-28T13:26:55.297Z,29.90
2023-03-28T13:28:00.682Z,30.00
2023-03-28T13:29:08.030Z,30.10
2023-03-28T13:30:16.322Z,29.80
2023-03-28T13:31:24.389Z,29.90
2023-03-28T13:32:26.952Z,30.00
2023-03-28T13:33:34.401Z,30.20
2023-03-28T13:34:36.576Z,30.70
2023-03-28T13:36:10.566Z,30.60
2023-03-28T13:37:23.270Z,30.60
2023-03-28T13:38:33.446Z,30.50
2023-03-28T13:39:36.518Z,30.70
2023-03-28T13:40:46.083Z,30.20
2023-03-28T13:42:02.448Z,30.00
2023-03-28T13:43:23.387Z,29.80
2023-03-28T13:44:43.925Z,29.80
2023-03-28T13:45:46.442Z,29.30
2023-03-28T13:46:51.557Z,29.00
2023-03-28T13:48:06.193Z,29.30
2023-03-28T13:49:19.829Z,29.40
2023-03-28T13:50:27.172Z,30.00
2023-03-28T13:51:33.886Z,30.00
2023-03-28T13:52:36.884Z,29.80
2023-03-28T13:53:47.542Z,30.60
2023-03-28T13:54:54.406Z,30.40
2023-03-28T13:56:08.571Z,31.20
2023-03-28T13:57:17.804Z,30.50
2023-03-28T13:58:21.905Z,30.90
2023-03-28T13:59:26.233Z,32.10
2023-03-28T14:00:29.793Z,31.80
2023-03-28T14:01:35.490Z,31.40
2023-03-28T14:02:42.814Z,31.70
2023-03-28T14:03:47.254Z,31.90
2023-03-28T14:04:57.172Z,31.60
2023-03-28T14:06:00.676Z,32.00
2023-03-28T14:07:03.110Z,31.60
2023-03-28T14:08:22.313Z,31.40
2023-03-28T14:09:33.456Z,31.20
2023-03-28T14:10:40.041Z,31.50
2023-03-28T14:11:43.553Z,31.10
2023-03-28T14:12:47.173Z,31.30
2023-03-28T14:13:54.743Z,31.80
2023-03-28T14:14:59.392Z,32.20
2023-03-28T14:16:01.456Z,32.30
2023-03-28T14:17:07.363Z,32.30
2023-03-28T14:18:17.209Z,32.00
2023-03-28T14:19:23.025Z,31.60
2023-03-28T14:20:30.892Z,31.30
2023-03-28T14:21:33.346Z,32.40
2023-03-28T14:22:52.695Z,32.50
2023-03-28T14:24:02.779Z,32.80
2023-03-28T14:25:12.752Z,32.90
2023-03-28T14:26:19.384Z,33.10
2023-03-28T14:27:31.555Z,32.50
2023-03-28T14:28:35.111Z,32.60
2023-03-28T14:29:52.737Z,33.00
2023-03-28T14:30:54.983Z,33.30
2023-03-28T14:31:58.114Z,33.40
2023-03-28T14:33:07.322Z,34.00
2023-03-28T14:34:17.192Z,34.10
2023-03-28T14:35:22.523Z,34.10
2023-03-28T14:36:30.964Z,34.50
2023-03-28T14:37:33.235Z,33.90
2023-03-28T14:38:38.035Z,33.80
2023-03-28T14:39:40.393Z,35.00
2023-03-28T14:40:46.127Z,34.40
2023-03-28T14:41:48.254Z,34.70
2023-03-28T14:42:55.781Z,35.10
2023-03-28T14:43:59.781Z,34.60
2023-03-28T14:45:02.937Z,34.40
2023-03-28T14:46:08.026Z,34.20
2023-03-28T14:47:16.337Z,34.20
2023-03-28T14:48:21.719Z,34.70
2023-03-28T14:49:26.326Z,34.60
2023-03-28T14:50:34.574Z,35.30
2023-03-28T14:51:43.074Z,35.40
2023-03-28T14:52:46.142Z,35.10
2023-03-28T14:53:49.256Z,34.80
2023-03-28T14:54:52.964Z,35.00
2023-03-28T14:56:00.801Z,34.60
2023-03-28T14:57:07.259Z,33.60
2023-03-28T14:58:12.486Z,34.00
2023-03-28T14:59:19.800Z,34.20
2023-03-28T15:00:24.306Z,34.00
2023-03-28T15:01:27.737Z,34.60
2023-03-28T15:02:35.255Z,34.30
2023-03-28T15:03:44.683Z,34.70
2023-03-28T15:04:48.852Z,34.00
2023-03-28T15:05:52.589Z,34.30
2023-03-28T15:06:58.782Z,34.70
2023-03-28T15:08:02.065Z,34.90
2023-03-28T15:09:12.179Z,35.60